Time;durP1;ratioP1;P1;durP2;ratioP2;P2;SDS_P1;SDS_P2;PMS_P1;PMS_P2;Temp;Humidity;BMP_temperature;BMP_pressure;BME280_temperature;BME280_humidity;BME280_pressure;Samples;Min_cycle;Max_cycle;Signal;HPM_P1;HPM_P2
2023/12/02 00:00:59;;;;;;;29.83;17.05;;;;;;;;;;6268093;22;20046;-93
2023/12/02 00:03:28;;;;;;;30.42;15.82;;;;;;;;;;6219325;22;20023;-89
2023/12/02 00:05:56;;;;;;;29.67;16.23;;;;;;;;;;6216640;22;20027;-93
2023/12/02 00:08:23;;;;;;;34.05;17.95;;;;;;;;;;6267761;22;20015;-89
2023/12/02 00:10:49;;;;;;;33.50;17.67;;;;;;;;;;6244427;22;20277;-91
2023/12/02 00:13:15;;;;;;;31.50;17.55;;;;;;;;;;6243600;22;20102;-91
2023/12/02 00:15:41;;;;;;;31.45;16.33;;;;;;;;;;6272919;22;20024;-91
2023/12/02 00:18:07;;;;;;;31.88;17.92;;;;;;;;;;6277610;22;20027;-96
2023/12/02 00:20:33;;;;;;;30.77;17.92;;;;;;;;;;6275057;22;20121;-95
2023/12/02 00:22:59;;;;;;;30.40;17.02;;;;;;;;;;6275679;22;20031;-93
2023/12/02 00:25:27;;;;;;;30.42;17.75;;;;;;;;;;6276213;22;20020;-91
2023/12/02 00:27:53;;;;;;;27.83;16.08;;;;;;;;;;6276465;22;20102;-90
2023/12/02 00:30:19;;;;;;;31.27;17.33;;;;;;;;;;6278488;22;20020;-95
2023/12/02 00:32:46;;;;;;;29.92;17.13;;;;;;;;;;6228067;22;20055;-92
2023/12/02 00:35:12;;;;;;;33.05;17.40;;;;;;;;;;6279513;22;20058;-94
2023/12/02 00:37:44;;;;;;;32.20;18.15;;;;;;;;;;6231708;22;20074;-94
2023/12/02 00:40:10;;;;;;;29.30;16.65;;;;;;;;;;6232486;22;20413;-95
2023/12/02 00:42:36;;;;;;;36.22;17.45;;;;;;;;;;6283330;22;20015;-91
2023/12/02 00:45:02;;;;;;;35.67;18.63;;;;;;;;;;6233969;22;20027;-95
2023/12/02 00:47:28;;;;;;;29.88;16.55;;;;;;;;;;6279662;22;20020;-94
2023/12/02 00:49:54;;;;;;;34.08;18.45;;;;;;;;;;6279205;22;20020;-94
2023/12/02 00:52:20;;;;;;;32.55;18.58;;;;;;;;;;6228144;22;20020;-93
2023/12/02 00:54:46;;;;;;;29.60;18.65;;;;;;;;;;6279265;22;20019;-95
2023/12/02 00:57:12;;;;;;;31.17;17.25;;;;;;;;;;6228397;22;20024;-95
2023/12/02 00:59:38;;;;;;;33.85;17.25;;;;;;;;;;6230287;22;20441;-95
2023/12/02 01:02:06;;;;;;;32.83;17.30;;;;;;;;;;6228480;22;20075;-95
2023/12/02 01:04:33;;;;;;;33.58;18.30;;;;;;;;;;6279861;22;20016;-93
2023/12/02 01:06:59;;;;;;;30.60;17.58;;;;;;;;;;6229758;22;20023;-95
2023/12/02 01:09:25;;;;;;;32.08;18.23;;;;;;;;;;6254904;22;20019;-92
2023/12/02 01:11:51;;;;;;;33.50;17.40;;;;;;;;;;6280831;22;20114;-95
2023/12/02 01:14:17;;;;;;;32.15;18.25;;;;;;;;;;6282499;22;20027;-96
2023/12/02 01:16:49;;;;;;;29.33;15.80;;;;;;;;;;6233746;22;20076;-96
2023/12/02 01:19:15;;;;;;;29.27;17.52;;;;;;;;;;6232652;22;20030;-94
2023/12/02 01:21:41;;;;;;;33.72;17.73;;;;;;;;;;6234810;22;20020;-94
2023/12/02 01:24:08;;;;;;;33.15;17.90;;;;;;;;;;6284579;22;20456;-94
2023/12/02 01:26:34;;;;;;;34.22;17.30;;;;;;;;;;6234000;22;20023;-95
2023/12/02 01:29:01;;;;;;;36.50;17.70;;;;;;;;;;6260834;22;20518;-95
2023/12/02 01:31:28;;;;;;;32.17;16.33;;;;;;;;;;6286198;22;20020;-91
2023/12/02 01:33:54;;;;;;;31.83;17.65;;;;;;;;;;6233690;22;20051;-94
2023/12/02 01:36:20;;;;;;;38.10;18.95;;;;;;;;;;6234372;22;20024;-91
2023/12/02 01:38:46;;;;;;;31.67;17.02;;;;;;;;;;6285286;22;20020;-94
2023/12/02 01:41:13;;;;;;;32.78;18.08;;;;;;;;;;6286049;22;20030;-95
2023/12/02 01:43:39;;;;;;;29.02;16.15;;;;;;;;;;6258510;22;20344;-91
2023/12/02 01:46:05;;;;;;;33.08;16.33;;;;;;;;;;6284606;22;20020;-92
2023/12/02 01:48:34;;;;;;;35.95;17.88;;;;;;;;;;6285601;22;20024;-94
2023/12/02 01:51:00;;;;;;;27.48;16.35;;;;;;;;;;6286348;22;20020;-94
2023/12/02 01:53:29;;;;;;;32.83;17.65;;;;;;;;;;6315005;22;20019;-95
2023/12/02 01:55:55;;;;;;;31.73;17.20;;;;;;;;;;6293450;22;20019;-96
2023/12/02 01:58:21;;;;;;;30.58;17.85;;;;;;;;;;6293990;22;20016;-94
2023/12/02 02:00:48;;;;;;;31.63;17.00;;;;;;;;;;6245042;22;20027;-96
2023/12/02 02:03:14;;;;;;;28.85;15.75;;;;;;;;;;6244195;22;20042;-96
2023/12/02 02:05:45;;;;;;;32.22;17.13;;;;;;;;;;6247986;22;20026;-95
2023/12/02 02:08:13;;;;;;;26.83;15.40;;;;;;;;;;6296348;22;20049;-95
2023/12/02 02:10:39;;;;;;;30.02;16.98;;;;;;;;;;6248439;22;20023;-95
2023/12/02 02:13:05;;;;;;;25.58;16.08;;;;;;;;;;6289351;22;20027;-91
2023/12/02 02:15:31;;;;;;;31.45;17.65;;;;;;;;;;6285077;22;20027;-93
2023/12/02 02:17:59;;;;;;;30.98;17.20;;;;;;;;;;6282213;22;20019;-92
2023/12/02 02:20:25;;;;;;;27.55;15.70;;;;;;;;;;6230773;22;20020;-91
2023/12/02 02:22:51;;;;;;;32.00;17.13;;;;;;;;;;6231359;22;20023;-92
2023/12/02 02:25:17;;;;;;;28.30;16.25;;;;;;;;;;6283662;22;20026;-91
2023/12/02 02:27:43;;;;;;;29.13;17.48;;;;;;;;;;6281013;22;20020;-93
2023/12/02 02:30:09;;;;;;;32.53;17.23;;;;;;;;;;6231183;22;20051;-90
2023/12/02 02:32:36;;;;;;;35.00;17.88;;;;;;;;;;6282109;22;20353;-93
2023/12/02 02:35:02;;;;;;;31.92;18.00;;;;;;;;;;6257325;22;20023;-94
2023/12/02 02:37:28;;;;;;;33.63;17.15;;;;;;;;;;6282692;22;20027;-91
2023/12/02 02:39:54;;;;;;;29.85;16.88;;;;;;;;;;6232981;22;20475;-91
2023/12/02 02:42:21;;;;;;;36.75;16.67;;;;;;;;;;6256174;22;20023;-91
2023/12/02 02:44:47;;;;;;;28.95;15.60;;;;;;;;;;6257355;22;20028;-92
2023/12/02 02:47:16;;;;;;;33.00;17.38;;;;;;;;;;6308227;22;20024;-93
2023/12/02 02:49:43;;;;;;;30.00;16.40;;;;;;;;;;6228197;22;20019;-92
2023/12/02 02:52:15;;;;;;;28.77;16.90;;;;;;;;;;6257799;22;20062;-92
2023/12/02 02:54:41;;;;;;;28.42;16.48;;;;;;;;;;6232949;22;20114;-91
2023/12/02 02:57:07;;;;;;;33.63;16.65;;;;;;;;;;6257547;22;20024;-91
2023/12/02 02:59:33;;;;;;;37.40;16.52;;;;;;;;;;6282375;22;20020;-93
2023/12/02 03:02:01;;;;;;;31.13;16.10;;;;;;;;;;6228480;22;20019;-91
2023/12/02 03:04:27;;;;;;;32.38;16.42;;;;;;;;;;6230504;22;20361;-96
2023/12/02 03:06:53;;;;;;;23.98;13.98;;;;;;;;;;6282183;22;20020;-93
2023/12/02 03:09:19;;;;;;;29.85;15.75;;;;;;;;;;6230816;22;20020;-92
2023/12/02 03:11:48;;;;;;;27.67;16.17;;;;;;;;;;6281919;22;20070;-91
2023/12/02 03:14:14;;;;;;;27.85;15.40;;;;;;;;;;6230494;22;20027;-92
2023/12/02 03:16:40;;;;;;;29.17;15.63;;;;;;;;;;6280513;22;20024;-95
2023/12/02 03:19:06;;;;;;;33.22;16.80;;;;;;;;;;6226815;22;20019;-91
2023/12/02 03:21:32;;;;;;;26.10;16.42;;;;;;;;;;6226321;22;20087;-91
2023/12/02 03:23:58;;;;;;;31.25;16.52;;;;;;;;;;6277326;22;20047;-94
2023/12/02 03:26:25;;;;;;;29.50;16.20;;;;;;;;;;6277513;22;20357;-93
2023/12/02 03:28:51;;;;;;;33.13;16.60;;;;;;;;;;6275953;22;20097;-92
2023/12/02 03:31:17;;;;;;;32.08;17.35;;;;;;;;;;6224446;22;20019;-93
2023/12/02 03:33:43;;;;;;;29.48;16.77;;;;;;;;;;6221674;22;20030;-92
2023/12/02 03:36:09;;;;;;;29.98;16.25;;;;;;;;;;6222351;22;20405;-91
2023/12/02 03:38:35;;;;;;;29.80;15.90;;;;;;;;;;6223234;22;20020;-92
2023/12/02 03:41:02;;;;;;;33.20;16.58;;;;;;;;;;6223669;22;20028;-90
2023/12/02 03:43:28;;;;;;;34.05;17.52;;;;;;;;;;6276071;22;20083;-92
2023/12/02 03:45:55;;;;;;;31.50;16.10;;;;;;;;;;6273118;22;20097;-90
2023/12/02 03:48:21;;;;;;;35.15;18.58;;;;;;;;;;6272440;22;20074;-92
2023/12/02 03:50:47;;;;;;;34.83;16.42;;;;;;;;;;6223299;22;20028;-93
2023/12/02 03:53:14;;;;;;;33.20;16.83;;;;;;;;;;6273991;22;20019;-96
2023/12/02 03:55:40;;;;;;;31.38;15.85;;;;;;;;;;6273640;22;20016;-93
2023/12/02 03:58:06;;;;;;;31.05;16.85;;;;;;;;;;6222805;22;20424;-95
2023/12/02 04:00:33;;;;;;;33.78;17.15;;;;;;;;;;6273497;22;20026;-93
2023/12/02 04:03:00;;;;;;;30.00;17.90;;;;;;;;;;6272868;22;20030;-92
2023/12/02 04:05:26;;;;;;;34.33;16.48;;;;;;;;;;6274185;22;20054;-90
2023/12/02 04:07:52;;;;;;;31.30;18.15;;;;;;;;;;6223228;22;20030;-96
2023/12/02 04:10:18;;;;;;;31.80;16.38;;;;;;;;;;6272749;22;20027;-93
2023/12/02 04:12:44;;;;;;;32.72;18.42;;;;;;;;;;6273306;22;20047;-94
2023/12/02 04:15:10;;;;;;;31.80;17.38;;;;;;;;;;6250128;22;20429;-90
2023/12/02 04:17:37;;;;;;;30.70;16.45;;;;;;;;;;6274996;22;20068;-91
2023/12/02 04:20:08;;;;;;;30.42;17.65;;;;;;;;;;6249449;22;20452;-91
2023/12/02 04:22:34;;;;;;;29.13;17.45;;;;;;;;;;6232834;22;20389;-92
2023/12/02 04:25:00;;;;;;;30.95;15.85;;;;;;;;;;6284159;22;20023;-92
2023/12/02 04:27:26;;;;;;;36.17;17.52;;;;;;;;;;6233051;22;20020;-93
2023/12/02 04:29:53;;;;;;;34.25;16.95;;;;;;;;;;6231663;22;20031;-90
2023/12/02 04:32:19;;;;;;;37.88;16.98;;;;;;;;;;6256585;22;20023;-92
2023/12/02 04:34:45;;;;;;;38.33;17.83;;;;;;;;;;6255556;22;20019;-93
2023/12/02 04:37:13;;;;;;;30.45;17.58;;;;;;;;;;6230015;22;20074;-94
2023/12/02 04:39:39;;;;;;;29.98;17.25;;;;;;;;;;6280028;22;20016;-91
2023/12/02 04:42:05;;;;;;;30.48;16.95;;;;;;;;;;6228362;22;20020;-91
2023/12/02 04:44:31;;;;;;;35.78;17.05;;;;;;;;;;6279390;22;20024;-91
2023/12/02 04:46:57;;;;;;;31.35;16.27;;;;;;;;;;6228775;22;20024;-91
2023/12/02 04:49:23;;;;;;;30.67;15.63;;;;;;;;;;6228723;22;20515;-94
2023/12/02 04:51:49;;;;;;;31.65;17.70;;;;;;;;;;6279409;22;20028;-93
2023/12/02 04:54:15;;;;;;;33.40;16.88;;;;;;;;;;6279647;22;20027;-91
2023/12/02 04:56:41;;;;;;;30.42;15.75;;;;;;;;;;6279964;22;20405;-94
2023/12/02 04:59:10;;;;;;;31.58;16.05;;;;;;;;;;6227320;22;20061;-90
2023/12/02 05:01:36;;;;;;;32.75;17.20;;;;;;;;;;6275981;22;20440;-91
2023/12/02 05:04:03;;;;;;;28.85;15.10;;;;;;;;;;6224615;22;20415;-91
2023/12/02 05:06:29;;;;;;;34.08;19.00;;;;;;;;;;6273764;22;20023;-91
2023/12/02 05:08:55;;;;;;;32.05;15.38;;;;;;;;;;6274932;22;20024;-94
2023/12/02 05:11:21;;;;;;;30.63;17.63;;;;;;;;;;6274915;22;20042;-96
2023/12/02 05:13:48;;;;;;;29.67;16.20;;;;;;;;;;6273310;22;20490;-94
2023/12/02 05:16:14;;;;;;;28.52;16.65;;;;;;;;;;6273728;22;20024;-93
2023/12/02 05:18:41;;;;;;;27.02;15.20;;;;;;;;;;6273178;22;20372;-90
2023/12/02 05:21:09;;;;;;;26.65;16.35;;;;;;;;;;6274186;22;20110;-93
2023/12/02 05:23:35;;;;;;;31.17;16.30;;;;;;;;;;6276538;22;20429;-91
2023/12/02 05:26:02;;;;;;;30.10;15.95;;;;;;;;;;6226271;22;20058;-93
2023/12/02 05:28:28;;;;;;;27.38;16.00;;;;;;;;;;6277080;22;20027;-94
2023/12/02 05:30:54;;;;;;;33.13;18.00;;;;;;;;;;6276224;22;20322;-95
2023/12/02 05:33:23;;;;;;;27.23;16.30;;;;;;;;;;6225033;22;20026;-92
2023/12/02 05:35:49;;;;;;;27.92;15.32;;;;;;;;;;6251061;22;20024;-93
2023/12/02 05:38:15;;;;;;;31.75;17.02;;;;;;;;;;6275513;22;20022;-94
2023/12/02 05:40:41;;;;;;;25.70;16.23;;;;;;;;;;6278693;22;20019;-94
2023/12/02 05:43:08;;;;;;;31.75;17.15;;;;;;;;;;6277786;22;20024;-94
2023/12/02 05:45:34;;;;;;;29.73;16.60;;;;;;;;;;6276555;22;20357;-95
2023/12/02 05:48:00;;;;;;;29.00;17.45;;;;;;;;;;6275914;22;20020;-94
2023/12/02 05:50:29;;;;;;;35.72;17.58;;;;;;;;;;6275601;22;20019;-93
2023/12/02 05:52:55;;;;;;;34.05;15.73;;;;;;;;;;6275365;22;20041;-96
2023/12/02 05:55:21;;;;;;;28.85;15.45;;;;;;;;;;6277568;22;20094;-95
2023/12/02 05:57:47;;;;;;;30.40;17.15;;;;;;;;;;6280004;22;20028;-93
2023/12/02 06:00:17;;;;;;;31.85;17.88;;;;;;;;;;6276442;22;20027;-96
2023/12/02 06:02:43;;;;;;;32.42;17.45;;;;;;;;;;6278895;22;20157;-91
2023/12/02 06:05:09;;;;;;;27.45;15.60;;;;;;;;;;6279220;22;20030;-95
2023/12/02 06:07:35;;;;;;;28.15;15.57;;;;;;;;;;6276635;22;20122;-95
2023/12/02 06:10:01;;;;;;;28.77;16.52;;;;;;;;;;6275326;22;20031;-96
2023/12/02 06:12:28;;;;;;;32.38;16.55;;;;;;;;;;6251052;22;20026;-95
2023/12/02 06:14:54;;;;;;;29.75;16.25;;;;;;;;;;6275710;22;20055;-95
2023/12/02 06:17:21;;;;;;;32.53;16.92;;;;;;;;;;6275464;22;20019;-95
2023/12/02 06:19:47;;;;;;;31.63;16.95;;;;;;;;;;6251218;22;20094;-95
2023/12/02 06:22:13;;;;;;;32.95;17.77;;;;;;;;;;6275709;22;20028;-93
2023/12/02 06:24:39;;;;;;;29.67;16.80;;;;;;;;;;6274755;22;20051;-94
2023/12/02 06:27:05;;;;;;;34.03;16.38;;;;;;;;;;6275910;22;20069;-94
2023/12/02 06:29:32;;;;;;;32.13;15.50;;;;;;;;;;6274151;22;20084;-91
2023/12/02 06:31:58;;;;;;;33.05;16.95;;;;;;;;;;6275225;22;20449;-90
2023/12/02 06:34:24;;;;;;;30.23;16.30;;;;;;;;;;6275440;22;20016;-96
2023/12/02 06:36:50;;;;;;;26.55;14.98;;;;;;;;;;6252436;22;20019;-92
2023/12/02 06:39:16;;;;;;;30.92;16.35;;;;;;;;;;6276139;22;20020;-91
2023/12/02 06:41:42;;;;;;;30.20;17.23;;;;;;;;;;6224952;22;20058;-91
2023/12/02 06:44:09;;;;;;;36.33;17.50;;;;;;;;;;6275655;22;20431;-95
2023/12/02 06:46:35;;;;;;;32.80;17.25;;;;;;;;;;6275780;22;20081;-92
2023/12/02 06:49:01;;;;;;;29.90;16.92;;;;;;;;;;6274629;22;20024;-91
2023/12/02 06:51:30;;;;;;;29.58;15.75;;;;;;;;;;6276544;22;20023;-92
2023/12/02 06:53:57;;;;;;;28.10;16.35;;;;;;;;;;6226482;22;20062;-93
2023/12/02 06:56:23;;;;;;;31.40;17.95;;;;;;;;;;6275121;22;20019;-92
2023/12/02 06:58:50;;;;;;;29.80;16.17;;;;;;;;;;6275100;22;20054;-92
2023/12/02 07:01:29;;;;;;;28.27;16.15;;;;;;;;;;6275791;22;20103;-89
2023/12/02 07:03:56;;;;;;;30.33;16.48;;;;;;;;;;6223940;22;20091;-92
2023/12/02 07:06:22;;;;;;;32.17;16.50;;;;;;;;;;6274962;22;20024;-89
2023/12/02 07:08:49;;;;;;;30.23;15.68;;;;;;;;;;6224751;22;20012;-92
2023/12/02 07:11:15;;;;;;;27.98;15.43;;;;;;;;;;6275035;22;20046;-91
2023/12/02 07:13:41;;;;;;;28.95;16.63;;;;;;;;;;6275014;22;20495;-91
2023/12/02 07:16:08;;;;;;;26.13;15.50;;;;;;;;;;6275201;22;20028;-91
2023/12/02 07:18:34;;;;;;;30.33;15.95;;;;;;;;;;6274339;22;20051;-90
2023/12/02 07:21:00;;;;;;;26.73;15.20;;;;;;;;;;6274619;22;20020;-92
2023/12/02 07:23:27;;;;;;;31.40;16.27;;;;;;;;;;6274053;22;20086;-92
2023/12/02 07:25:53;;;;;;;26.00;15.05;;;;;;;;;;6274844;22;20345;-90
2023/12/02 07:28:19;;;;;;;30.65;16.17;;;;;;;;;;6275353;22;20051;-89
2023/12/02 07:30:48;;;;;;;30.98;15.88;;;;;;;;;;6224037;22;20030;-88
2023/12/02 07:33:14;;;;;;;33.67;17.20;;;;;;;;;;6275502;22;20469;-93
2023/12/02 07:35:40;;;;;;;32.03;17.08;;;;;;;;;;6250785;22;20065;-93
2023/12/02 07:38:06;;;;;;;38.58;17.63;;;;;;;;;;6275902;22;20086;-93
2023/12/02 07:40:32;;;;;;;36.63;15.55;;;;;;;;;;6275553;22;20019;-93
2023/12/02 07:42:58;;;;;;;32.50;16.27;;;;;;;;;;6275813;22;20095;-93
2023/12/02 07:45:24;;;;;;;32.80;17.13;;;;;;;;;;6249482;22;20352;-92
2023/12/02 07:47:50;;;;;;;29.77;16.83;;;;;;;;;;6275561;22;20383;-94
2023/12/02 07:50:16;;;;;;;29.77;15.55;;;;;;;;;;6224688;22;20031;-92
2023/12/02 07:52:43;;;;;;;28.70;15.60;;;;;;;;;;6224611;22;20023;-91
2023/12/02 07:55:09;;;;;;;31.15;16.35;;;;;;;;;;6276101;22;20051;-93
2023/12/02 07:57:35;;;;;;;32.40;16.80;;;;;;;;;;6225701;22;20024;-93
2023/12/02 08:00:01;;;;;;;30.77;16.00;;;;;;;;;;6277471;22;20020;-93
2023/12/02 08:02:27;;;;;;;31.10;16.63;;;;;;;;;;6225941;22;20051;-94
2023/12/02 08:04:53;;;;;;;32.03;17.63;;;;;;;;;;6251859;22;20071;-92
2023/12/02 08:07:19;;;;;;;29.67;16.23;;;;;;;;;;6251635;22;20028;-95
2023/12/02 08:09:45;;;;;;;31.45;16.08;;;;;;;;;;6228714;22;20078;-88
2023/12/02 08:12:11;;;;;;;29.33;16.33;;;;;;;;;;6285651;22;20043;-92
2023/12/02 08:14:37;;;;;;;33.20;17.40;;;;;;;;;;6284843;22;20024;-89
2023/12/02 08:17:04;;;;;;;27.05;15.95;;;;;;;;;;6233640;22;20024;-88
2023/12/02 08:19:30;;;;;;;33.10;16.17;;;;;;;;;;6235012;22;20436;-89
2023/12/02 08:21:56;;;;;;;39.75;17.98;;;;;;;;;;6283943;22;20058;-87
2023/12/02 08:24:23;;;;;;;36.40;18.85;;;;;;;;;;6310923;22;20165;-90
2023/12/02 08:26:54;;;;;;;32.15;16.40;;;;;;;;;;6263414;22;20016;-90
2023/12/02 08:29:22;;;;;;;37.75;16.00;;;;;;;;;;6231533;22;20516;-90
2023/12/02 08:31:54;;;;;;;31.63;16.85;;;;;;;;;;6281632;22;20625;-89
2023/12/02 08:34:20;;;;;;;30.75;16.13;;;;;;;;;;6231482;22;20027;-89
2023/12/02 08:36:46;;;;;;;35.97;16.77;;;;;;;;;;6231849;22;20465;-88
2023/12/02 08:39:12;;;;;;;27.50;16.90;;;;;;;;;;6283945;22;20039;-89
2023/12/02 08:41:38;;;;;;;29.20;17.13;;;;;;;;;;6281775;22;20102;-90
2023/12/02 08:44:05;;;;;;;28.42;15.98;;;;;;;;;;6256803;22;20031;-87
2023/12/02 08:46:31;;;;;;;30.50;16.27;;;;;;;;;;6284240;22;20464;-89
2023/12/02 08:48:57;;;;;;;30.05;15.80;;;;;;;;;;6282821;22;20106;-89
2023/12/02 08:51:23;;;;;;;35.15;18.67;;;;;;;;;;6282339;22;20020;-88
2023/12/02 08:53:51;;;;;;;37.97;17.85;;;;;;;;;;6281645;22;20019;-89
2023/12/02 08:56:17;;;;;;;35.25;17.83;;;;;;;;;;6285770;22;20023;-90
2023/12/02 08:58:45;;;;;;;37.55;19.90;;;;;;;;;;6284304;22;20019;-88
2023/12/02 09:01:11;;;;;;;29.98;16.23;;;;;;;;;;6284773;22;20023;-88
2023/12/02 09:03:39;;;;;;;28.40;15.90;;;;;;;;;;6232513;22;20042;-87
2023/12/02 09:06:05;;;;;;;36.17;17.63;;;;;;;;;;6283218;22;20020;-88
2023/12/02 09:08:31;;;;;;;31.60;16.90;;;;;;;;;;6259143;22;20016;-90
2023/12/02 09:10:57;;;;;;;32.50;17.88;;;;;;;;;;6257392;22;20782;-88
2023/12/02 09:13:23;;;;;;;28.30;16.85;;;;;;;;;;6284402;22;20031;-87
2023/12/02 09:15:49;;;;;;;38.55;16.05;;;;;;;;;;6284515;22;20030;-88
2023/12/02 09:18:24;;;;;;;29.23;16.10;;;;;;;;;;6238240;22;20016;-88
2023/12/02 09:20:53;;;;;;;34.63;17.10;;;;;;;;;;6289201;22;20019;-88
2023/12/02 09:23:22;;;;;;;28.60;16.20;;;;;;;;;;6283694;22;20023;-89
2023/12/02 09:25:50;;;;;;;29.48;15.10;;;;;;;;;;6255778;22;20019;-87
2023/12/02 09:28:18;;;;;;;27.48;15.52;;;;;;;;;;6282694;22;20027;-88
2023/12/02 09:30:51;;;;;;;28.48;14.25;;;;;;;;;;6282397;22;20051;-88
2023/12/02 09:33:17;;;;;;;30.33;17.90;;;;;;;;;;6289401;22;20100;-88
2023/12/02 09:35:44;;;;;;;28.25;14.25;;;;;;;;;;6292654;22;20027;-87
2023/12/02 09:38:10;;;;;;;27.13;15.45;;;;;;;;;;6284405;22;20047;-89
2023/12/02 09:40:36;;;;;;;28.63;14.68;;;;;;;;;;6279033;22;20027;-88
2023/12/02 09:43:02;;;;;;;26.33;13.88;;;;;;;;;;6282389;22;20020;-88
2023/12/02 09:45:40;;;;;;;25.95;13.57;;;;;;;;;;6282258;22;20393;-88
2023/12/02 09:48:10;;;;;;;26.63;14.75;;;;;;;;;;6282244;22;20035;-88
2023/12/02 09:50:57;;;;;;;29.85;14.10;;;;;;;;;;6279842;22;20019;-87
2023/12/02 09:53:32;;;;;;;27.63;15.07;;;;;;;;;;6235103;22;20305;-88
2023/12/02 09:56:04;;;;;;;26.67;14.32;;;;;;;;;;6279468;22;20027;-87
2023/12/02 09:58:37;;;;;;;25.95;13.68;;;;;;;;;;6280324;22;20105;-88
2023/12/02 10:01:08;;;;;;;25.88;14.98;;;;;;;;;;6288884;22;20068;-88
2023/12/02 10:03:34;;;;;;;27.98;15.50;;;;;;;;;;6285683;22;20023;-88
2023/12/02 10:06:09;;;;;;;22.98;14.23;;;;;;;;;;6278653;22;20068;-87
2023/12/02 10:08:48;;;;;;;25.60;13.95;;;;;;;;;;6272008;22;20016;-88
2023/12/02 10:11:17;;;;;;;25.65;14.20;;;;;;;;;;6276331;22;20035;-88
2023/12/02 10:13:49;;;;;;;28.52;15.45;;;;;;;;;;6276675;22;20081;-87
2023/12/02 10:16:16;;;;;;;28.27;14.43;;;;;;;;;;6277377;22;20027;-88
2023/12/02 10:18:51;;;;;;;26.75;16.15;;;;;;;;;;6275636;22;20019;-89
2023/12/02 10:21:19;;;;;;;27.15;14.57;;;;;;;;;;6275784;22;20105;-87
2023/12/02 10:23:54;;;;;;;21.73;13.90;;;;;;;;;;6273904;22;20012;-87
2023/12/02 10:26:32;;;;;;;21.83;13.65;;;;;;;;;;6274201;22;20388;-88
2023/12/02 10:29:09;;;;;;;25.33;13.38;;;;;;;;;;6273569;22;20099;-90
2023/12/02 10:31:37;;;;;;;21.88;13.20;;;;;;;;;;6270011;22;20034;-89
2023/12/02 10:34:15;;;;;;;21.75;13.10;;;;;;;;;;6271171;22;20019;-89
2023/12/02 10:36:43;;;;;;;23.25;13.13;;;;;;;;;;6272577;22;20168;-91
2023/12/02 10:39:11;;;;;;;24.73;13.73;;;;;;;;;;6270173;22;20077;-90
2023/12/02 10:41:46;;;;;;;23.55;13.52;;;;;;;;;;6275328;22;20019;-90
2023/12/02 10:44:15;;;;;;;22.95;12.73;;;;;;;;;;6269714;22;20023;-89
2023/12/02 10:46:42;;;;;;;26.08;13.88;;;;;;;;;;6269961;22;20445;-90
2023/12/02 10:49:11;;;;;;;22.40;12.98;;;;;;;;;;6271576;22;20483;-90
2023/12/02 10:51:40;;;;;;;24.35;13.02;;;;;;;;;;6270808;22;20024;-90
2023/12/02 10:54:08;;;;;;;22.75;12.43;;;;;;;;;;6271890;22;20020;-92
2023/12/02 10:56:37;;;;;;;24.13;12.02;;;;;;;;;;6273589;22;20020;-92
2023/12/02 10:59:04;;;;;;;25.65;13.65;;;;;;;;;;6274361;22;20023;-90
2023/12/02 11:01:37;;;;;;;23.70;12.35;;;;;;;;;;6273784;22;20301;-94
2023/12/02 11:04:18;;;;;;;22.00;14.00;;;;;;;;;;6269379;22;20085;-90
2023/12/02 11:06:50;;;;;;;20.63;12.55;;;;;;;;;;6267842;22;20055;-91
2023/12/02 11:09:25;;;;;;;24.38;12.98;;;;;;;;;;6268137;22;20126;-91
2023/12/02 11:12:07;;;;;;;24.45;13.15;;;;;;;;;;6268736;22;20498;-92
2023/12/02 11:14:40;;;;;;;21.67;13.00;;;;;;;;;;6269222;22;20039;-90
2023/12/02 11:17:06;;;;;;;;;;;;;;;;;;6272735;22;20524;-92
2023/12/02 11:19:41;;;;;;;19.58;11.98;;;;;;;;;;6304428;22;19903;-92
2023/12/02 11:22:26;;;;;;;21.92;14.57;;;;;;;;;;6273296;22;20032;-92
2023/12/02 11:25:08;;;;;;;21.27;12.50;;;;;;;;;;6279897;22;20034;-93
2023/12/02 11:27:54;;;;;;;19.70;12.05;;;;;;;;;;6283228;22;20027;-91
2023/12/02 11:44:44;;;;;;;16.05;9.77;;;2.00;99.90;;;;;;5942897;23;20085;-94
2023/12/02 11:48:12;;;;;;;20.40;11.57;;;;;;;;;;5966138;24;20024;-93
2023/12/02 13:23:04;;;;;;;6.95;4.10;;;;;;;;;;6234216;23;20020;-92
2023/12/02 13:25:35;;;;;;;4.55;3.35;;;;;;;;;;6209637;23;20330;-92
2023/12/02 13:28:17;;;;;;;5.78;3.80;;;;;;;;;;6208639;23;20016;-91
2023/12/02 13:30:43;;;;;;;8.82;3.92;;;;;;;;;;6212564;23;20102;-93
2023/12/02 13:33:19;;;;;;;7.10;4.00;;;;;;;;;;6211761;23;20056;-91
2023/12/02 13:35:49;;;;;;;7.93;4.80;;;;;;;;;;6211751;23;20027;-91
2023/12/02 13:38:24;;;;;;;8.95;4.97;;;;;;;;;;6209298;23;20119;-92
2023/12/02 13:40:57;;;;;;;6.60;4.32;;;;;;;;;;6210055;23;20388;-90
2023/12/02 13:43:25;;;;;;;6.97;4.97;;;;;;;;;;6211601;23;20027;-92
2023/12/02 13:45:55;;;;;;;5.75;4.30;;;;;;;;;;6213870;23;20020;-92
2023/12/02 13:48:24;;;;;;;9.18;5.32;;;;;;;;;;6214520;23;20044;-91
2023/12/02 13:50:58;;;;;;;6.68;5.07;;;;;;;;;;6194388;23;20464;-90
2023/12/02 13:53:41;;;;;;;9.93;4.88;;;;;;;;;;6221213;23;20024;-91
2023/12/02 13:56:17;;;;;;;6.85;5.28;;;;;;;;;;6203915;23;20055;-95
2023/12/02 13:59:17;;;;;;;4.63;4.18;;;2.70;99.90;;;;;;6205639;23;20031;-92
2023/12/02 14:01:50;;;;;;;4.88;4.25;;;;;;;;;;6203837;23;20025;-92
2023/12/02 14:04:19;;;;;;;7.53;3.90;;;;;;;;;;6206574;23;20017;-96
2023/12/02 14:06:45;;;;;;;7.38;4.32;;;;;;;;;;6201601;23;20469;-94
2023/12/02 14:09:14;;;;;;;6.05;4.32;;;;;;;;;;6203507;23;20039;-96
2023/12/02 14:11:41;;;;;;;6.07;3.85;;;;;;;;;;6206033;23;20099;-94
2023/12/02 14:14:36;;;;;;;8.23;4.07;;;;;;;;;;6204946;23;20040;-92
2023/12/02 14:17:11;;;;;;;7.10;4.40;;;;;;;;;;6127481;23;20057;-95
2023/12/02 14:20:04;;;;;;;8.77;4.55;;;;;;;;;;6204535;23;20071;-92
2023/12/02 14:22:38;;;;;;;5.38;4.32;;;;;;;;;;6176423;23;20052;-93
2023/12/02 14:25:04;;;;;;;6.78;4.13;;;;;;;;;;6205404;23;20027;-94
2023/12/02 14:27:39;;;;;;;7.47;5.03;;;;;;;;;;6207040;23;20016;-94
2023/12/02 14:30:05;;;;;;;5.80;4.40;;;;;;;;;;6205479;23;20025;-95
2023/12/02 14:32:46;;;;;;;5.75;4.90;;;;;;;;;;6208304;23;20020;-91
2023/12/02 14:35:22;;;;;;;6.53;5.28;;;;;;;;;;6202769;23;20072;-91
2023/12/02 14:37:51;;;;;;;8.40;5.10;;;;;;;;;;6215799;23;20025;-91
2023/12/02 14:40:17;;;;;;;13.43;5.72;;;;;;;;;;6216038;22;20012;-92
2023/12/02 14:42:49;;;;;;;6.60;5.25;;;;;;;;;;6216482;23;20052;-90
2023/12/02 14:45:17;;;;;;;8.05;5.32;;;;;;;;;;6217161;22;20068;-93
2023/12/02 14:47:44;;;;;;;6.50;4.55;;;;;;;;;;6214693;23;20020;-90
2023/12/02 14:50:10;;;;;;;6.88;4.68;;;;;;;;;;6207579;23;20020;-91
2023/12/02 14:52:42;;;;;;;8.15;5.10;;;;;;;;;;6203532;23;20025;-94
2023/12/02 14:55:10;;;;;;;9.18;4.57;;;;;;;;;;6233845;23;20008;-94
2023/12/02 14:57:36;;;;;;;6.97;4.63;;;;;;;;;;6215125;23;20406;-91
2023/12/02 15:00:10;;;;;;;8.32;4.90;;;;;;;;;;6209356;23;20021;-94
2023/12/02 15:02:51;;;;;;;6.28;4.25;;;;;;;;;;6202295;23;20027;-90
2023/12/02 15:05:20;;;;;;;7.32;4.85;;;;;;;;;;6226437;23;20047;-89
2023/12/02 15:07:50;;;;;;;6.47;4.68;;;;;;;;;;6201059;23;20027;-89
2023/12/02 15:10:17;;;;;;;9.27;5.43;;;;;;;;;;6199426;23;20031;-90
2023/12/02 15:12:44;;;;;;;8.60;5.10;;;;;;;;;;6195797;23;20440;-89
2023/12/02 15:15:29;;;;;;;8.18;5.10;;;;;;;;;;6184710;23;20024;-92
2023/12/02 15:17:55;;;;;;;6.38;4.57;;;;;;;;;;6184348;23;20106;-89
2023/12/02 15:20:21;;;;;;;14.32;4.88;;;;;;;;;;6185888;23;20021;-91
2023/12/02 15:22:47;;;;;;;8.98;4.82;;;;;;;;;;6186420;23;20021;-89
2023/12/02 15:25:13;;;;;;;6.80;4.53;;;;;;;;;;6187365;23;20390;-90
2023/12/02 15:27:41;;;;;;;5.82;4.35;;;;;;;;;;6188132;23;20020;-93
2023/12/02 15:30:12;;;;;;;5.88;4.55;;;;;;;;;;6192589;23;20336;-92
2023/12/02 15:32:38;;;;;;;5.45;4.55;;;;;;;;;;6211922;23;20457;-94
2023/12/02 15:35:05;;;;;;;8.68;5.03;;;;;;;;;;6187004;23;20024;-92
2023/12/02 15:37:33;;;;;;;7.32;4.88;;;;;;;;;;6186383;23;20024;-92
2023/12/02 15:39:59;;;;;;;16.42;4.45;;;;;;;;;;6186477;23;20294;-91
2023/12/02 15:42:25;;;;;;;5.10;3.90;;;;;;;;;;6187265;23;20038;-94
2023/12/02 15:44:51;;;;;;;12.02;4.20;;;;;;;;;;6188160;23;20338;-90
2023/12/02 15:47:17;;;;;;;5.85;3.90;;;;;;;;;;6195987;23;20023;-91
2023/12/02 15:49:43;;;;;;;7.75;4.30;;;;;;;;;;6202272;23;20032;-89
2023/12/02 15:52:10;;;;;;;4.65;3.83;;;;;;;;;;6195793;23;20469;-92
2023/12/02 15:54:36;;;;;;;6.78;4.43;;;;;;;;;;6183183;23;20086;-90
2023/12/02 15:57:02;;;;;;;5.72;4.00;;;;;;;;;;6182365;23;20366;-90
2023/12/02 15:59:29;;;;;;;6.55;3.38;;;;;;;;;;6184142;23;20017;-90
2023/12/02 16:01:57;;;;;;;5.32;3.70;;;;;;;;;;6184454;23;20021;-90
2023/12/02 16:04:26;;;;;;;5.28;3.13;;;;;;;;;;6159393;23;20057;-89
2023/12/02 16:06:53;;;;;;;5.05;3.00;;;;;;;;;;6163285;23;20025;-90
2023/12/02 16:09:20;;;;;;;8.85;3.40;;;;;;;;;;6164319;23;20486;-90
2023/12/02 16:11:47;;;;;;;5.10;3.05;;;;;;;;;;6184379;23;20024;-90
2023/12/02 16:14:13;;;;;;;6.25;3.65;;;;;;;;;;6185632;23;20027;-90